Time,TemperatureF,DewpointF,PressureIn,WindDirection,WindDirectionDegrees,WindSpeedMPH,WindSpeedGustMPH,Humidity,HourlyPrecipIn,Conditions,Clouds,dailyrainin,SoftwareType,DateUTC
2013-02-22 09:33:00,42.5,41.4,30.11,East,101,0.0,1.0,96,0.13,,,0.63,Wunderground v.1.15,2013-02-22 14:33:00,
2013-02-22 09:53:00,43.0,42.2,30.12,East,100,0.0,0.0,97,0.10,,,0.67,Wunderground v.1.15,2013-02-22 14:53:00,
2013-02-22 10:03:00,43.2,42.4,30.12,East,100,0.0,0.0,97,0.05,,,0.67,Wunderground v.1.15,2013-02-22 15:03:00,
2013-02-22 10:12:00,43.3,42.5,30.10,East,100,0.0,1.0,97,0.00,,,0.68,Wunderground v.1.15,2013-02-22 15:12:00,
2013-02-22 10:22:00,43.5,42.7,30.11,East,100,0.0,0.0,97,0.00,,,0.68,Wunderground v.1.15,2013-02-22 15:22:00,
2013-02-22 10:32:00,43.7,42.9,30.11,East,100,0.0,0.0,97,0.00,,,0.68,Wunderground v.1.15,2013-02-22 15:32:00,
2013-02-22 10:42:00,43.7,42.9,30.11,East,100,0.0,0.0,97,0.00,,,0.69,Wunderground v.1.15,2013-02-22 15:42:00,
2013-02-22 10:52:00,43.9,43.1,30.12,East,96,0.0,0.0,97,0.08,,,0.70,Wunderground v.1.15,2013-02-22 15:52:00,
2013-02-22 11:12:00,43.9,43.1,30.10,ENE,65,1.0,1.0,97,0.04,,,0.71,Wunderground v.1.15,2013-02-22 16:12:00,
2013-02-22 11:23:00,43.9,43.1,30.10,ENE,65,0.0,0.0,97,0.00,,,0.71,Wunderground v.1.15,2013-02-22 16:23:00,
2013-02-22 11:33:00,44.0,43.2,30.10,NE,40,1.0,1.0,97,0.00,,,0.72,Wunderground v.1.15,2013-02-22 16:33:00,
2013-02-22 11:52:00,44.0,43.2,30.11,NE,40,0.0,0.0,97,0.00,,,0.72,Wunderground v.1.15,2013-02-22 16:52:00,
2013-02-22 12:02:00,44.0,43.5,30.11,NE,40,0.0,0.0,98,0.00,,,0.72,Wunderground v.1.15,2013-02-22 17:02:00,
2013-02-22 12:12:00,43.9,43.4,30.10,NE,40,0.0,0.0,98,0.00,,,0.72,Wunderground v.1.15,2013-02-22 17:12:00,
2013-02-22 12:22:00,43.7,42.9,30.10,NE,40,1.0,1.0,97,0.00,,,0.72,Wunderground v.1.15,2013-02-22 17:22:00,
2013-02-22 12:32:00,43.4,42.6,30.10,NNW,333,1.0,1.0,97,0.00,,,0.72,Wunderground v.1.15,2013-02-22 17:32:00,
2013-02-22 12:42:00,43.4,42.6,30.10,NNE,26,0.0,0.0,97,0.00,,,0.72,Wunderground v.1.15,2013-02-22 17:42:00,
2013-02-22 12:52:00,43.5,42.7,30.09,NW,323,0.0,0.0,97,0.00,,,0.72,Wunderground v.1.15,2013-02-22 17:52:00,
2013-02-22 13:02:00,43.4,42.6,30.09,NE,51,1.0,3.0,97,0.00,,,0.72,Wunderground v.1.15,2013-02-22 18:02:00,
2013-02-22 13:12:00,43.2,42.4,30.09,NNE,26,1.0,1.0,97,0.00,,,0.73,Wunderground v.1.15,2013-02-22 18:12:00,
2013-02-22 13:22:00,43.2,42.4,30.09,North,9,0.0,0.0,97,0.00,,,0.73,Wunderground v.1.15,2013-02-22 18:22:00,
2013-02-22 13:32:00,43.1,42.3,30.09,NNW,333,0.0,4.0,97,0.00,,,0.73,Wunderground v.1.15,2013-02-22 18:32:00,
2013-02-22 13:42:00,43.2,42.7,30.09,NNW,333,1.0,1.0,98,0.00,,,0.73,Wunderground v.1.15,2013-02-22 18:42:00,
2013-02-22 13:52:00,42.9,42.1,30.08,NNW,333,0.0,2.0,97,0.00,,,0.73,Wunderground v.1.15,2013-02-22 18:52:00,
2013-02-22 14:02:00,42.8,42.0,30.08,NNE,15,1.0,1.0,97,0.00,,,0.73,Wunderground v.1.15,2013-02-22 19:02:00,
2013-02-22 14:12:00,42.8,42.0,30.07,NNE,14,1.0,1.0,97,0.00,,,0.73,Wunderground v.1.15,2013-02-22 19:12:00,
2013-02-22 14:22:00,42.7,41.9,30.07,NE,56,1.0,1.0,97,0.00,,,0.73,Wunderground v.1.15,2013-02-22 19:22:00,
2013-02-22 14:32:00,42.7,41.9,30.07,NE,41,1.0,1.0,97,0.00,,,0.73,Wunderground v.1.15,2013-02-22 19:32:00,
2013-02-22 14:42:00,42.5,41.7,30.07,NE,42,1.0,1.0,97,0.00,,,0.73,Wunderground v.1.15,2013-02-22 19:42:00,
2013-02-22 14:52:00,42.5,41.7,30.07,NE,42,1.0,1.0,97,0.00,,,0.73,Wunderground v.1.15,2013-02-22 19:52:00,
2013-02-22 15:02:00,42.4,41.6,30.07,NNW,348,1.0,1.0,97,0.00,,,0.73,Wunderground v.1.15,2013-02-22 20:02:00,
2013-02-22 15:11:00,42.2,41.4,30.08,NNW,340,1.0,1.0,97,0.11,,,0.75,Wunderground v.1.15,2013-02-22 20:11:00,
2013-02-22 15:22:00,42.0,41.2,30.07,NNW,346,0.0,1.0,97,0.07,,,0.77,Wunderground v.1.15,2013-02-22 20:22:00,
2013-02-22 15:33:00,42.2,41.4,30.07,NNW,348,0.0,0.0,97,0.00,,,0.77,Wunderground v.1.15,2013-02-22 20:33:00,
2013-02-22 15:42:00,42.1,41.3,30.07,NNE,28,0.0,0.0,97,0.00,,,0.77,Wunderground v.1.15,2013-02-22 20:42:00,
2013-02-22 15:53:00,42.1,41.3,30.07,NNE,20,0.0,4.0,97,0.00,,,0.77,Wunderground v.1.15,2013-02-22 20:53:00,
2013-02-22 16:02:00,42.1,41.6,30.07,North,11,1.0,1.0,98,0.00,,,0.77,Wunderground v.1.15,2013-02-22 21:02:00,
2013-02-22 16:12:00,42.1,41.3,30.06,NE,43,1.0,1.0,97,0.00,,,0.77,Wunderground v.1.15,2013-02-22 21:12:00,
2013-02-22 16:23:00,42.0,41.2,30.05,NE,42,0.0,0.0,97,0.00,,,0.77,Wunderground v.1.15,2013-02-22 21:23:00,
2013-02-22 16:33:00,41.9,41.1,30.05,NNE,29,1.0,2.0,97,0.00,,,0.77,Wunderground v.1.15,2013-02-22 21:33:00,
2013-02-22 16:42:00,41.9,41.1,30.05,ENE,57,1.0,1.0,97,0.00,,,0.77,Wunderground v.1.15,2013-02-22 21:42:00,
2013-02-22 16:52:00,41.9,41.1,30.05,NE,44,1.0,3.0,97,0.00,,,0.77,Wunderground v.1.15,2013-02-22 21:52:00,
2013-02-22 17:02:00,41.9,41.1,30.05,NNE,24,1.0,1.0,97,0.00,,,0.77,Wunderground v.1.15,2013-02-22 22:02:00,
2013-02-22 17:12:00,41.8,41.3,30.05,NNE,22,0.0,0.0,98,0.00,,,0.77,Wunderground v.1.15,2013-02-22 22:12:00,
2013-02-22 17:22:00,41.8,41.3,30.05,NNE,21,0.0,2.0,98,0.00,,,0.77,Wunderground v.1.15,2013-02-22 22:22:00,
2013-02-22 17:32:00,41.7,41.2,30.05,NNE,21,1.0,3.0,98,0.00,,,0.77,Wunderground v.1.15,2013-02-22 22:32:00,
2013-02-22 17:42:00,41.3,40.5,30.05,North,5,1.0,1.0,97,0.00,,,0.77,Wunderground v.1.15,2013-02-22 22:42:00,
2013-02-22 17:52:00,41.2,40.4,30.05,North,11,0.0,0.0,97,0.00,,,0.77,Wunderground v.1.15,2013-02-22 22:52:00,
2013-02-22 18:02:00,41.3,40.8,30.05,NE,46,1.0,1.0,98,0.00,,,0.77,Wunderground v.1.15,2013-02-22 23:02:00,
2013-02-22 18:12:00,41.0,40.5,30.05,ENE,74,1.0,1.0,98,0.00,,,0.77,Wunderground v.1.15,2013-02-22 23:12:00,
2013-02-22 18:22:00,41.0,40.5,30.05,NNE,24,1.0,1.0,98,0.00,,,0.77,Wunderground v.1.15,2013-02-22 23:22:00,
2013-02-22 18:32:00,41.0,40.5,30.05,NNE,24,0.0,0.0,98,0.00,,,0.77,Wunderground v.1.15,2013-02-22 23:32:00,
2013-02-22 18:52:00,41.0,40.5,30.04,NNE,24,0.0,0.0,98,0.00,,,0.77,Wunderground v.1.15,2013-02-22 23:52:00,
2013-02-22 19:02:00,41.0,41.0,30.04,North,9,0.0,0.0,100,0.00,,,0.77,Wunderground v.1.15,2013-02-23 00:02:00,
2013-02-22 19:12:00,41.0,40.5,30.05,NNE,30,1.0,1.0,98,0.00,,,0.77,Wunderground v.1.15,2013-02-23 00:12:00,
2013-02-22 19:22:00,41.0,40.5,30.06,NNE,30,0.0,0.0,98,0.00,,,0.77,Wunderground v.1.15,2013-02-23 00:22:00,
2013-02-22 19:32:00,41.0,40.5,30.06,NNE,30,0.0,0.0,98,0.00,,,0.77,Wunderground v.1.15,2013-02-23 00:32:00,
2013-02-22 19:42:00,41.0,40.5,30.06,NNE,30,0.0,0.0,98,0.00,,,0.77,Wunderground v.1.15,2013-02-23 00:42:00,
2013-02-22 19:52:00,41.0,40.5,30.07,NNE,30,0.0,0.0,98,0.00,,,0.77,Wunderground v.1.15,2013-02-23 00:52:00,
2013-02-22 20:02:00,41.1,40.6,30.07,NNE,30,0.0,0.0,98,0.00,,,0.77,Wunderground v.1.15,2013-02-23 01:02:00,
2013-02-22 20:12:00,41.0,40.5,30.05,NNE,32,1.0,1.0,98,0.00,,,0.77,Wunderground v.1.15,2013-02-23 01:12:00,
2013-02-22 20:22:00,40.8,40.3,30.06,NNE,30,1.0,1.0,98,0.00,,,0.77,Wunderground v.1.15,2013-02-23 01:22:00,
2013-02-22 20:32:00,40.7,40.2,30.06,NNE,27,1.0,1.0,98,0.00,,,0.77,Wunderground v.1.15,2013-02-23 01:32:00,
2013-02-22 20:42:00,40.8,40.3,30.06,NNE,27,1.0,1.0,98,0.00,,,0.77,Wunderground v.1.15,2013-02-23 01:42:00,
2013-02-22 20:52:00,40.9,40.4,30.07,NNE,27,0.0,0.0,98,0.00,,,0.77,Wunderground v.1.15,2013-02-23 01:52:00,
2013-02-22 21:02:00,40.9,40.4,30.07,NNE,27,0.0,0.0,98,0.00,,,0.77,Wunderground v.1.15,2013-02-23 02:02:00,
2013-02-22 21:12:00,40.9,40.4,30.07,NNE,26,0.0,0.0,98,0.00,,,0.77,Wunderground v.1.15,2013-02-23 02:12:00,
2013-02-22 21:21:00,40.8,40.3,30.06,NNE,26,0.0,0.0,98,0.00,,,0.77,Wunderground v.1.15,2013-02-23 02:21:00,
2013-02-22 21:32:00,40.9,40.4,30.06,NNE,26,0.0,0.0,98,0.00,,,0.77,Wunderground v.1.15,2013-02-23 02:32:00,
2013-02-22 21:42:00,40.9,40.4,30.06,WNW,302,1.0,1.0,98,0.00,,,0.77,Wunderground v.1.15,2013-02-23 02:42:00,
2013-02-22 21:52:00,40.8,40.3,30.08,North,9,1.0,1.0,98,0.00,,,0.77,Wunderground v.1.15,2013-02-23 02:52:00,
2013-02-22 22:02:00,40.7,40.2,30.08,North,360,1.0,2.0,98,0.00,,,0.77,Wunderground v.1.15,2013-02-23 03:02:00,
2013-02-22 22:12:00,40.7,40.2,30.07,NNE,24,0.0,5.0,98,0.00,,,0.77,Wunderground v.1.15,2013-02-23 03:12:00,
2013-02-22 22:23:00,40.6,40.1,30.06,NNE,17,0.0,1.0,98,0.00,,,0.78,Wunderground v.1.15,2013-02-23 03:23:00,
2013-02-22 22:33:00,40.5,40.0,30.06,NNW,342,1.0,1.0,98,0.00,,,0.78,Wunderground v.1.15,2013-02-23 03:33:00,
2013-02-22 22:43:00,40.4,39.9,30.06,NE,34,1.0,1.0,98,0.00,,,0.78,Wunderground v.1.15,2013-02-23 03:43:00,
2013-02-22 22:52:00,40.3,39.8,30.05,North,11,1.0,1.0,98,0.00,,,0.78,Wunderground v.1.15,2013-02-23 03:52:00,
2013-02-22 23:02:00,40.2,39.7,30.05,North,11,0.0,0.0,98,0.00,,,0.78,Wunderground v.1.15,2013-02-23 04:02:00,
2013-02-22 23:12:00,40.3,39.8,30.05,North,11,0.0,0.0,98,0.00,,,0.78,Wunderground v.1.15,2013-02-23 04:12:00,